Time;durP1;ratioP1;P1;durP2;ratioP2;P2;SDS_P1;SDS_P2;PMS_P1;PMS_P2;Temp;Humidity;BMP_temperature;BMP_pressure;BME280_temperature;BME280_humidity;BME280_pressure;Samples;Min_cycle;Max_cycle;Signal;HPM_P1;HPM_P2
2023/04/12 00:01:19;;;;;;;9.88;3.00;;;;;;;;;;4980179;28;20050;-67
2023/04/12 00:03:49;;;;;;;8.75;2.97;;;8.90;99.90;;;;;;4978496;28;20046;-67
2023/04/12 00:06:16;;;;;;;8.75;2.80;;;;;;;;;;4983798;28;20129;-67
2023/04/12 00:08:45;;;;;;;6.80;2.45;;;;;;;;;;4996331;28;20053;-67
2023/04/12 00:11:11;;;;;;;7.25;2.60;;;8.70;99.90;;;;;;4985703;28;20058;-67
2023/04/12 00:13:37;;;;;;;10.60;2.72;;;;;;;;;;4994369;28;20031;-67
2023/04/12 00:16:03;;;;;;;10.00;2.58;;;;;;;;;;4984575;28;20100;-67
2023/04/12 00:18:29;;;;;;;9.13;2.78;;;;;;;;;;4979607;28;20034;-67
2023/04/12 00:20:55;;;;;;;10.73;2.67;;;8.80;99.90;;;;;;4978477;28;20501;-68
2023/04/12 00:23:21;;;;;;;7.63;3.00;;;;;;;;;;4983947;28;20563;-68
2023/04/12 00:25:47;;;;;;;4.57;2.40;;;9.10;99.90;;;;;;5002244;28;20488;-67
2023/04/12 00:28:12;;;;;;;9.45;2.70;;;;;;;;;;4983379;28;20125;-68
2023/04/12 00:30:40;;;;;;;10.00;2.90;;;;;;;;;;4984587;28;20408;-67
2023/04/12 00:33:06;;;;;;;8.40;2.92;;;;;;;;;;4996720;28;20049;-67
2023/04/12 00:35:32;;;;;;;7.63;3.13;;;;;;;;;;4981879;28;20125;-67
2023/04/12 00:37:58;;;;;;;5.38;2.47;;;;;;;;;;4979578;28;20046;-68
2023/04/12 00:40:24;;;;;;;6.75;2.97;;;;;;;;;;4982252;28;20104;-67
2023/04/12 00:42:50;;;;;;;6.90;2.70;;;;;;;;;;5004731;28;20041;-67
2023/04/12 00:45:16;;;;;;;9.00;2.47;;;;;;;;;;5002001;28;20381;-67
2023/04/12 00:47:42;;;;;;;9.43;2.95;;;;;;;;;;4978514;28;20050;-67
2023/04/12 00:50:09;;;;;;;13.50;3.78;;;;;;;;;;4976813;28;20667;-67
2023/04/12 00:52:35;;;;;;;10.77;2.55;;;9.00;99.90;;;;;;4993372;28;20050;-67
2023/04/12 00:55:03;;;;;;;6.93;2.60;;;;;;;;;;4996356;28;20903;-67
2023/04/12 00:57:35;;;;;;;8.15;3.13;;;;;;;;;;4999885;28;20042;-67
2023/04/12 01:00:03;;;;;;;9.15;2.67;;;;;;;;;;4989089;28;20050;-67
2023/04/12 01:02:29;;;;;;;12.30;3.13;;;;;;;;;;4990440;28;20111;-67
2023/04/12 01:04:57;;;;;;;8.68;2.70;;;;;;;;;;4985439;28;20594;-68
2023/04/12 01:07:23;;;;;;;12.20;3.13;;;;;;;;;;4987869;28;20056;-68
2023/04/12 01:09:56;;;;;;;7.82;3.72;;;;;;;;;;5003003;28;20410;-68
2023/04/12 01:12:41;;;;;;;13.02;2.90;;;;;;;;;;4999024;28;20046;-67
2023/04/12 01:15:09;;;;;;;5.28;2.92;;;;;;;;;;4997179;28;20039;-67
2023/04/12 01:17:38;;;;;;;6.13;2.90;;;;;;;;;;4981961;28;20082;-67
2023/04/12 01:20:24;;;;;;;7.22;2.60;;;;;;;;;;4997783;28;20042;-67
2023/04/12 01:22:59;;;;;;;9.38;3.17;;;;;;;;;;4984876;28;20054;-68
2023/04/12 01:25:40;;;;;;;13.75;2.67;;;;;;;;;;4998356;28;20511;-67
2023/04/12 01:28:09;;;;;;;8.50;3.33;;;8.80;99.90;;;;;;5006796;28;20045;-67
2023/04/12 01:30:36;;;;;;;8.55;2.78;;;8.70;99.90;;;;;;5005660;28;20111;-67
2023/04/12 01:33:04;;;;;;;6.93;2.80;;;;;;;;;;4982063;28;20092;-67
2023/04/12 01:35:31;;;;;;;5.45;2.30;;;;;;;;;;4995771;28;20038;-68
2023/04/12 01:37:57;;;;;;;9.23;2.55;;;;;;;;;;4992039;28;20046;-68
2023/04/12 01:40:26;;;;;;;8.70;2.65;;;;;;;;;;4976628;28;20054;-68
2023/04/12 01:42:53;;;;;;;7.57;2.90;;;;;;;;;;4984284;28;20096;-68
2023/04/12 01:45:19;;;;;;;3.22;2.35;;;;;;;;;;4965996;28;21111;-68
2023/04/12 01:47:45;;;;;;;9.57;2.67;;;9.00;99.90;;;;;;4980206;28;20054;-67
2023/04/12 01:50:16;;;;;;;6.72;2.70;;;;;;;;;;4988283;28;20357;-67
2023/04/12 01:52:45;;;;;;;7.57;2.70;;;;;;;;;;5001973;28;20142;-68
2023/04/12 01:55:12;;;;;;;11.98;3.47;;;9.20;99.90;;;;;;4999724;28;20045;-67
2023/04/12 01:57:39;;;;;;;6.13;2.92;;;;;;;;;;5006049;28;20045;-67
2023/04/12 02:00:07;;;;;;;7.20;2.30;;;8.80;99.90;;;;;;4974887;28;20050;-67
2023/04/12 02:02:35;;;;;;;10.52;3.15;;;;;;;;;;4983452;28;20060;-67
2023/04/12 02:05:01;;;;;;;11.45;3.72;;;;;;;;;;4980035;28;20104;-67
2023/04/12 02:07:28;;;;;;;9.38;2.63;;;;;;;;;;4980813;28;20666;-68
2023/04/12 02:09:53;;;;;;;6.18;2.75;;;8.90;99.90;;;;;;5002137;28;20120;-68
2023/04/12 02:12:19;;;;;;;7.80;2.70;;;;;;;;;;4982232;28;20133;-67
2023/04/12 02:14:45;;;;;;;9.10;2.42;;;;;;;;;;4995789;28;20042;-67
2023/04/12 02:17:12;;;;;;;13.43;2.67;;;;;;;;;;4980829;28;20101;-67
2023/04/12 02:19:38;;;;;;;7.07;2.28;;;;;;;;;;5003246;28;20530;-67
2023/04/12 02:22:04;;;;;;;7.05;2.60;;;;;;;;;;4994652;28;20103;-67
2023/04/12 02:24:30;;;;;;;6.25;2.47;;;8.80;99.90;;;;;;4987673;28;20061;-68
2023/04/12 02:26:57;;;;;;;7.13;2.25;;;;;;;;;;4991695;28;20034;-67
2023/04/12 02:29:24;;;;;;;11.20;3.25;;;;;;;;;;4978685;28;20088;-68
2023/04/12 02:31:51;;;;;;;4.93;2.70;;;;;;;;;;4982339;28;20049;-67
2023/04/12 02:34:17;;;;;;;6.35;2.28;;;;;;;;;;4974553;28;20085;-67
2023/04/12 02:36:50;;;;;;;7.10;2.55;;;;;;;;;;4981572;28;20125;-67
2023/04/12 02:39:20;;;;;;;9.95;2.88;;;8.80;99.90;;;;;;4980812;28;20133;-68
2023/04/12 02:41:46;;;;;;;7.30;3.90;;;;;;;;;;5002984;28;20246;-67
2023/04/12 02:44:12;;;;;;;5.82;2.85;;;8.80;99.90;;;;;;4983325;28;20049;-68
2023/04/12 02:46:38;;;;;;;7.45;3.33;;;;;;;;;;4986265;28;20033;-68
2023/04/12 02:49:04;;;;;;;9.93;2.67;;;;;;;;;;4982864;28;20301;-67
2023/04/12 02:51:30;;;;;;;10.63;3.30;;;;;;;;;;4995551;28;20074;-68
2023/04/12 02:53:56;;;;;;;8.57;2.63;;;8.80;99.90;;;;;;4985574;28;20077;-67
2023/04/12 02:56:23;;;;;;;6.35;2.17;;;;;;;;;;4981041;28;20046;-67
2023/04/12 02:58:49;;;;;;;10.07;2.78;;;;;;;;;;4991768;28;20421;-68
2023/04/12 03:01:15;;;;;;;12.50;3.33;;;;;;;;;;4983169;28;20223;-67
2023/04/12 03:03:41;;;;;;;7.70;2.45;;;;;;;;;;4998152;28;20125;-67
2023/04/12 03:06:08;;;;;;;6.05;2.65;;;;;;;;;;4974867;28;20101;-67
2023/04/12 03:08:35;;;;;;;5.57;2.55;;;;;;;;;;4996904;28;20054;-68
2023/04/12 03:11:01;;;;;;;12.48;3.25;;;;;;;;;;4995936;28;20038;-67
2023/04/12 03:13:26;;;;;;;9.63;2.35;;;;;;;;;;4983968;28;20388;-68
2023/04/12 03:15:57;;;;;;;3.47;2.03;;;;;;;;;;5000022;28;20044;-68
2023/04/12 03:18:24;;;;;;;6.50;2.22;;;;;;;;;;4986184;28;20076;-67
2023/04/12 03:20:51;;;;;;;7.53;2.05;;;;;;;;;;4994786;28;20869;-68
2023/04/12 03:23:17;;;;;;;8.85;2.33;;;;;;;;;;5002450;28;20046;-68
2023/04/12 03:25:44;;;;;;;5.38;1.98;;;;;;;;;;4986421;28;20070;-68
2023/04/12 03:28:10;;;;;;;6.53;2.15;;;;;;;;;;5000161;28;20103;-68
2023/04/12 03:30:36;;;;;;;4.68;1.80;;;;;;;;;;4981357;28;20508;-67
2023/04/12 03:33:01;;;;;;;3.28;1.70;;;8.90;99.90;;;;;;4974592;28;20038;-68
2023/04/12 03:35:27;;;;;;;8.02;2.70;;;;;;;;;;4981645;28;20038;-67
2023/04/12 03:37:53;;;;;;;9.95;3.15;;;;;;;;;;4995283;28;20408;-67
2023/04/12 03:40:19;;;;;;;5.07;2.10;;;;;;;;;;4976933;28;20046;-68
2023/04/12 03:42:45;;;;;;;6.88;1.92;;;;;;;;;;4978817;28;20050;-67
2023/04/12 03:45:11;;;;;;;7.13;2.15;;;;;;;;;;4995718;28;20057;-67
2023/04/12 03:47:37;;;;;;;7.93;2.53;;;;;;;;;;4982143;28;20164;-68
2023/04/12 03:50:09;;;;;;;8.73;2.83;;;;;;;;;;4994211;28;20042;-67
2023/04/12 03:52:35;;;;;;;7.05;1.85;;;;;;;;;;4985996;28;20069;-67
2023/04/12 03:55:01;;;;;;;3.75;2.40;;;;;;;;;;5003909;28;20042;-67
2023/04/12 03:57:27;;;;;;;4.38;2.33;;;;;;;;;;4978395;28;20046;-67
2023/04/12 03:59:53;;;;;;;6.47;2.25;;;;;;;;;;5004081;28;20083;-67
2023/04/12 04:02:19;;;;;;;6.30;2.13;;;;;;;;;;4979082;28;20050;-67
2023/04/12 04:04:45;;;;;;;6.88;2.60;;;;;;;;;;4974092;28;20046;-67
2023/04/12 04:07:12;;;;;;;9.68;2.35;;;;;;;;;;4974690;28;20056;-67
2023/04/12 04:09:38;;;;;;;6.63;2.47;;;;;;;;;;5002363;28;20042;-67
2023/04/12 04:12:04;;;;;;;6.40;2.30;;;;;;;;;;4997707;28;20045;-67
2023/04/12 04:14:33;;;;;;;9.18;2.70;;;;;;;;;;4986183;28;20050;-67
2023/04/12 04:16:59;;;;;;;8.13;2.25;;;;;;;;;;4985789;28;20152;-67
2023/04/12 04:19:25;;;;;;;5.65;2.45;;;;;;;;;;4984500;28;20184;-67
2023/04/12 04:21:51;;;;;;;5.97;2.85;;;;;;;;;;4982841;28;20049;-68
2023/04/12 04:24:17;;;;;;;5.18;2.80;;;;;;;;;;4995271;28;20042;-67
2023/04/12 04:26:44;;;;;;;6.22;2.33;;;8.70;99.90;;;;;;4994968;28;20042;-67
2023/04/12 04:29:10;;;;;;;11.20;3.35;;;;;;;;;;4978822;28;20050;-67
2023/04/12 04:31:36;;;;;;;6.95;2.60;;;;;;;;;;4983357;28;20080;-67
2023/04/12 04:34:06;;;;;;;6.40;3.10;;;;;;;;;;4982534;28;20474;-67
2023/04/12 04:36:36;;;;;;;6.47;2.90;;;;;;;;;;4983105;28;20049;-67
2023/04/12 04:39:03;;;;;;;10.45;3.78;;;;;;;;;;4994827;28;20495;-67
2023/04/12 04:41:33;;;;;;;7.25;3.03;;;;;;;;;;4982906;28;20434;-67
2023/04/12 04:44:03;;;;;;;10.20;3.70;;;8.30;99.90;;;;;;4982772;28;20082;-67
2023/04/12 04:46:30;;;;;;;7.95;4.15;;;;;;;;;;4983342;28;20096;-67
2023/04/12 04:48:57;;;;;;;11.20;3.95;;;;;;;;;;5001840;28;20046;-67
2023/04/12 04:51:23;;;;;;;14.57;5.57;;;8.50;99.90;;;;;;4999886;28;20069;-68
2023/04/12 04:53:49;;;;;;;10.98;5.53;;;;;;;;;;5002695;28;20054;-68
2023/04/12 04:56:15;;;;;;;11.55;6.60;;;;;;;;;;5002254;28;20413;-67
2023/04/12 04:58:41;;;;;;;13.73;5.95;;;;;;;;;;4985290;28;20042;-68
2023/04/12 05:01:07;;;;;;;9.32;6.03;;;;;;;;;;5000383;28;20563;-67
2023/04/12 05:03:33;;;;;;;12.88;7.03;;;;;;;;;;4995624;28;20058;-68
2023/04/12 05:06:01;;;;;;;10.77;6.43;;;;;;;;;;5000495;28;20038;-67
2023/04/12 05:08:27;;;;;;;14.80;7.00;;;;;;;;;;4989132;28;20039;-68
2023/04/12 05:10:54;;;;;;;13.10;7.28;;;;;;;;;;4991688;28;20177;-67
2023/04/12 05:13:21;;;;;;;11.68;7.10;;;;;;;;;;4974935;28;20042;-68
2023/04/12 05:15:47;;;;;;;14.38;7.65;;;;;;;;;;4976376;28;20051;-68
2023/04/12 05:18:14;;;;;;;12.85;6.78;;;;;;;;;;4994735;28;20049;-68
2023/04/12 05:20:40;;;;;;;14.30;7.13;;;;;;;;;;4980718;28;20054;-68
2023/04/12 05:23:06;;;;;;;9.77;6.55;;;;;;;;;;4994602;28;20050;-68
2023/04/12 05:25:33;;;;;;;17.05;5.80;;;;;;;;;;5000704;28;20779;-67
2023/04/12 05:27:58;;;;;;;11.07;5.78;;;8.40;99.90;;;;;;4968247;28;20038;-68
2023/04/12 05:30:24;;;;;;;11.65;6.15;;;;;;;;;;4954292;28;20049;-67
2023/04/12 05:32:50;;;;;;;7.40;5.05;;;;;;;;;;5002388;28;20042;-68
2023/04/12 05:35:16;;;;;;;10.82;5.15;;;;;;;;;;4999367;28;20163;-68
2023/04/12 05:37:42;;;;;;;8.98;5.53;;;;;;;;;;4981411;28;20042;-67
2023/04/12 05:40:08;;;;;;;14.02;5.63;;;;;;;;;;4983535;28;20056;-67
2023/04/12 05:42:38;;;;;;;10.43;4.90;;;;;;;;;;4979986;28;20083;-67
2023/04/12 05:45:05;;;;;;;9.50;5.47;;;;;;;;;;4982366;28;20056;-67
2023/04/12 05:47:31;;;;;;;10.95;5.18;;;;;;;;;;4983796;28;20539;-67
2023/04/12 05:49:57;;;;;;;12.05;5.65;;;;;;;;;;4988265;28;20050;-68
2023/04/12 05:52:23;;;;;;;7.72;4.28;;;;;;;;;;4986889;28;20058;-68
2023/04/12 05:54:49;;;;;;;10.82;4.65;;;;;;;;;;4985655;28;20053;-68
2023/04/12 05:57:16;;;;;;;8.00;5.00;;;;;;;;;;4990351;28;20128;-68
2023/04/12 05:59:42;;;;;;;9.20;4.65;;;;;;;;;;4997604;28;20046;-68
2023/04/12 06:02:09;;;;;;;9.15;4.22;;;;;;;;;;5006756;28;20050;-67
2023/04/12 06:04:36;;;;;;;7.30;3.78;;;;;;;;;;4955719;28;20046;-68
2023/04/12 06:07:02;;;;;;;11.73;4.20;;;;;;;;;;4984314;28;20101;-68
2023/04/12 06:09:28;;;;;;;10.25;4.28;;;;;;;;;;4988970;28;20053;-68
2023/04/12 06:11:54;;;;;;;8.18;4.55;;;;;;;;;;4985632;28;20390;-68
2023/04/12 06:14:20;;;;;;;9.77;4.43;;;;;;;;;;4979764;28;20057;-67
2023/04/12 06:16:45;;;;;;;6.90;4.53;;;8.30;99.90;;;;;;4998051;28;20043;-68
2023/04/12 06:19:11;;;;;;;8.70;4.90;;;;;;;;;;4995748;28;20504;-67
2023/04/12 06:21:37;;;;;;;7.15;5.00;;;;;;;;;;4982329;28;20593;-68
2023/04/12 06:24:03;;;;;;;10.68;4.47;;;;;;;;;;4976591;28;20157;-68
2023/04/12 06:26:30;;;;;;;7.57;4.03;;;;;;;;;;4994543;28;20460;-67
2023/04/12 06:28:55;;;;;;;10.50;5.13;;;8.00;99.90;;;;;;4974078;28;20038;-69
2023/04/12 06:31:21;;;;;;;6.78;4.93;;;;;;;;;;4981415;28;20050;-68
2023/04/12 06:33:49;;;;;;;9.70;5.03;;;;;;;;;;4984435;28;20045;-69
2023/04/12 06:36:15;;;;;;;7.88;4.68;;;;;;;;;;5001086;28;20050;-73
2023/04/12 06:38:41;;;;;;;7.75;5.15;;;;;;;;;;5001886;28;20526;-72
2023/04/12 06:41:07;;;;;;;8.35;5.07;;;8.30;99.90;;;;;;4993510;28;20377;-72
2023/04/12 06:43:33;;;;;;;9.88;4.85;;;;;;;;;;4973493;28;20042;-72
2023/04/12 06:46:01;;;;;;;6.28;4.90;;;;;;;;;;4969012;28;20046;-69
2023/04/12 06:48:27;;;;;;;8.88;5.70;;;;;;;;;;4990297;28;20056;-69
2023/04/12 06:50:53;;;;;;;7.72;5.70;;;;;;;;;;4996105;28;20046;-69
2023/04/12 06:53:19;;;;;;;8.02;5.50;;;;;;;;;;4974221;28;20436;-70
2023/04/12 06:55:45;;;;;;;7.18;5.88;;;;;;;;;;4974058;28;20058;-69
2023/04/12 06:58:11;;;;;;;9.23;5.95;;;;;;;;;;4980334;28;20056;-69
2023/04/12 07:00:38;;;;;;;8.82;5.82;;;;;;;;;;4999500;28;20050;-69
2023/04/12 07:03:04;;;;;;;7.32;5.60;;;;;;;;;;4976906;28;20203;-68
2023/04/12 07:05:30;;;;;;;5.47;4.97;;;;;;;;;;4982187;28;20074;-68
2023/04/12 07:07:56;;;;;;;9.82;5.47;;;;;;;;;;5001504;28;20053;-68
2023/04/12 07:10:22;;;;;;;7.65;5.68;;;;;;;;;;4977366;28;20058;-68
2023/04/12 07:12:48;;;;;;;7.07;6.05;;;;;;;;;;4978870;28;20538;-68
2023/04/12 07:15:14;;;;;;;8.07;6.65;;;;;;;;;;4982577;28;20073;-68
2023/04/12 07:17:41;;;;;;;9.32;6.78;;;;;;;;;;4992132;28;20046;-70
2023/04/12 07:20:06;;;;;;;6.45;5.80;;;8.40;99.90;;;;;;5001259;28;20042;-69
2023/04/12 07:22:32;;;;;;;7.20;5.43;;;;;;;;;;4996444;28;20037;-70
2023/04/12 07:24:58;;;;;;;6.55;5.85;;;;;;;;;;4983751;28;20052;-70
2023/04/12 07:27:24;;;;;;;7.18;6.43;;;;;;;;;;4973386;28;20606;-70
2023/04/12 07:29:52;;;;;;;10.57;9.40;;;;;;;;;;4993216;28;20044;-70
2023/04/12 07:32:18;;;;;;;8.25;7.35;;;;;;;;;;4976506;28;20060;-68
2023/04/12 07:34:44;;;;;;;7.65;6.93;;;;;;;;;;4978674;28;20408;-70
2023/04/12 07:37:10;;;;;;;10.75;8.55;;;;;;;;;;4994983;28;20057;-70
2023/04/12 07:39:38;;;;;;;7.72;7.03;;;;;;;;;;4978034;28;20447;-69
2023/04/12 07:42:04;;;;;;;9.82;7.15;;;;;;;;;;4993342;28;20236;-72
2023/04/12 07:44:30;;;;;;;7.35;6.65;;;;;;;;;;4979381;28;20926;-72
2023/04/12 07:46:56;;;;;;;8.13;7.28;;;;;;;;;;4977136;28;20500;-68
2023/04/12 07:49:22;;;;;;;7.85;7.05;;;8.40;99.90;;;;;;4994749;28;20046;-72
2023/04/12 07:51:48;;;;;;;8.35;7.47;;;;;;;;;;4976481;28;20733;-70
2023/04/12 07:54:14;;;;;;;7.65;6.80;;;;;;;;;;4976976;28;20056;-69
2023/04/12 07:56:40;;;;;;;9.30;8.23;;;;;;;;;;4995412;28;20053;-69
2023/04/12 07:59:06;;;;;;;10.43;8.15;;;;;;;;;;4972469;28;20061;-72
2023/04/12 08:01:32;;;;;;;10.15;7.75;;;;;;;;;;4979645;28;20046;-70
2023/04/12 08:03:58;;;;;;;10.40;8.32;;;;;;;;;;4989989;28;20042;-70
2023/04/12 08:06:25;;;;;;;11.55;8.15;;;;;;;;;;4974576;28;20408;-68
2023/04/12 08:08:51;;;;;;;10.82;8.45;;;;;;;;;;4973704;28;20046;-70
2023/04/12 08:11:17;;;;;;;14.05;9.13;;;;;;;;;;4979655;28;20053;-68
2023/04/12 08:13:42;;;;;;;10.73;9.13;;;8.40;99.90;;;;;;4976304;28;20049;-68
2023/04/12 08:16:08;;;;;;;10.05;8.43;;;;;;;;;;4981684;28;20400;-68
2023/04/12 08:18:34;;;;;;;10.73;9.48;;;;;;;;;;4977347;28;20056;-68
2023/04/12 08:21:00;;;;;;;11.70;9.07;;;;;;;;;;4979603;28;20046;-68
2023/04/12 08:23:26;;;;;;;11.73;9.07;;;;;;;;;;4975232;28;20770;-68
2023/04/12 08:26:02;;;;;;;14.43;9.20;;;;;;;;;;4993232;28;20803;-69
2023/04/12 08:28:27;;;;;;;;;;;;;;;;;;4991155;28;20109;-69
2023/04/12 08:30:53;;;;;;;13.40;9.80;;;;;;;;;;4993543;28;20860;-68
2023/04/12 08:33:20;;;;;;;9.43;8.18;;;;;;;;;;4975083;28;20706;-68
2023/04/12 08:35:46;;;;;;;10.30;8.70;;;;;;;;;;5000104;28;20112;-67
2023/04/12 08:38:11;;;;;;;9.80;8.77;;;;;;;;;;4997590;28;20054;-67
2023/04/12 08:40:38;;;;;;;10.68;9.02;;;;;;;;;;4977671;28;20136;-68
2023/04/12 08:43:07;;;;;;;9.85;8.85;;;8.70;99.90;;;;;;5000929;28;20275;-67
2023/04/12 08:45:35;;;;;;;11.68;8.82;;;8.90;99.90;;;;;;4995457;28;20104;-68
2023/04/12 08:48:02;;;;;;;12.40;9.60;;;;;;;;;;4976743;28;20633;-67
2023/04/12 08:50:29;;;;;;;8.60;7.78;;;9.10;99.90;;;;;;4989201;28;20089;-68
2023/04/12 08:52:55;;;;;;;9.80;8.10;;;;;;;;;;4958108;28;20058;-67
2023/04/12 08:55:21;;;;;;;10.57;7.85;;;;;;;;;;4971108;28;20046;-68
2023/04/12 08:57:47;;;;;;;9.32;7.22;;;;;;;;;;4995030;28;20127;-67
2023/04/12 09:00:15;;;;;;;7.85;7.03;;;;;;;;;;4981100;28;20050;-67
2023/04/12 09:02:45;;;;;;;8.35;7.07;;;;;;;;;;4969708;28;20069;-67
2023/04/12 09:05:13;;;;;;;8.20;7.00;;;;;;;;;;4968672;28;20191;-67
2023/04/12 09:07:39;;;;;;;9.30;7.18;;;9.10;99.90;;;;;;4958869;28;20134;-68
2023/04/12 09:10:05;;;;;;;8.70;6.40;;;;;;;;;;4976815;28;20089;-68
2023/04/12 09:12:31;;;;;;;7.93;6.03;;;;;;;;;;4981953;28;20048;-68
2023/04/12 09:15:08;;;;;;;8.90;6.75;;;;;;;;;;4976730;28;20042;-69
2023/04/12 09:17:35;;;;;;;8.38;6.20;;;;;;;;;;4981796;28;20488;-68
2023/04/12 09:20:03;;;;;;;9.48;6.88;;;;;;;;;;4977349;28;20054;-67
2023/04/12 09:22:33;;;;;;;7.20;5.72;;;;;;;;;;4998556;28;20052;-68
2023/04/12 09:24:59;;;;;;;10.80;6.60;;;;;;;;;;4998824;28;20463;-67
2023/04/12 09:27:28;;;;;;;7.57;5.47;;;;;;;;;;4977378;28;20054;-67
2023/04/12 09:30:08;;;;;;;8.15;5.95;;;9.80;99.90;;;;;;4974417;28;20050;-68
2023/04/12 09:32:34;;;;;;;10.38;6.00;;;;;;;;;;5001354;28;20121;-68
2023/04/12 09:35:01;;;;;;;9.15;5.38;;;9.80;99.90;;;;;;4993397;28;20038;-68
2023/04/12 09:37:27;;;;;;;6.47;5.07;;;;;;;;;;4994488;28;20043;-68
2023/04/12 09:40:00;;;;;;;10.38;6.40;;;;;;;;;;4981539;28;20388;-69
2023/04/12 09:42:27;;;;;;;10.80;6.32;;;;;;;;;;4994497;28;20073;-68
2023/04/12 09:44:53;;;;;;;9.63;6.00;;;10.40;99.90;;;;;;4979705;28;20049;-70
2023/04/12 09:47:19;;;;;;;10.70;5.68;;;;;;;;;;4995426;28;20034;-69
2023/04/12 09:49:45;;;;;;;9.77;5.95;;;;;;;;;;4978835;28;20133;-68
2023/04/12 09:52:12;;;;;;;7.55;4.88;;;;;;;;;;4983569;28;20144;-68
2023/04/12 09:54:44;;;;;;;13.75;5.43;;;;;;;;;;4994837;28;20472;-67
2023/04/12 09:57:11;;;;;;;11.48;4.32;;;;;;;;;;4956287;28;20067;-69
2023/04/12 09:59:39;;;;;;;11.98;4.75;;;11.00;99.90;;;;;;4972646;28;20038;-68
2023/04/12 10:02:07;;;;;;;7.68;4.80;;;;;;;;;;4991908;28;20046;-69
2023/04/12 10:04:34;;;;;;;11.38;5.65;;;;;;;;;;4991419;28;20042;-69
2023/04/12 10:07:01;;;;;;;15.65;4.85;;;11.90;99.90;;;;;;4976806;28;20448;-69
2023/04/12 10:09:27;;;;;;;9.27;4.55;;;;;;;;;;4983692;28;20492;-69
2023/04/12 10:11:53;;;;;;;13.48;4.75;;;;;;;;;;4975538;28;20049;-69
2023/04/12 10:14:20;;;;;;;16.83;4.70;;;12.30;99.90;;;;;;4976127;28;20095;-69
2023/04/12 10:16:48;;;;;;;12.18;3.85;;;;;;;;;;4995164;28;20445;-70
2023/04/12 10:19:14;;;;;;;10.98;3.50;;;12.30;99.90;;;;;;4996413;28;20484;-70
2023/04/12 10:21:41;;;;;;;8.88;4.00;;;;;;;;;;4995869;28;20056;-70
2023/04/12 10:24:07;;;;;;;17.80;5.25;;;;;;;;;;4975493;28;20050;-70
2023/04/12 10:26:33;;;;;;;14.10;3.60;;;;;;;;;;4980687;28;20048;-70
2023/04/12 10:29:25;;;;;;;9.80;2.90;;;12.80;99.90;;;;;;4978552;28;20042;-70
2023/04/12 10:31:51;;;;;;;10.00;2.80;;;12.80;99.90;;;;;;4981794;28;20045;-70
2023/04/12 10:34:17;;;;;;;10.98;3.22;;;;;;;;;;4999736;28;20578;-70
2023/04/12 10:36:53;;;;;;;14.85;3.08;;;12.50;99.90;;;;;;5000992;28;20045;-70
2023/04/12 10:39:41;;;;;;;14.10;2.75;;;12.20;99.90;;;;;;4974707;28;20038;-70
2023/04/12 10:42:14;;;;;;;15.20;3.60;;;12.20;99.90;;;;;;4983782;28;20049;-70
2023/04/12 10:44:40;;;;;;;13.00;3.72;;;12.10;99.90;;;;;;4992204;28;20437;-70
2023/04/12 10:47:08;;;;;;;12.88;2.88;;;;;;;;;;4976210;28;20081;-70
2023/04/12 10:49:34;;;;;;;13.15;3.30;;;11.90;99.90;;;;;;4976591;28;20451;-70
2023/04/12 10:52:01;;;;;;;16.63;3.30;;;;;;;;;;4974891;28;20058;-70
2023/04/12 10:54:27;;;;;;;13.02;3.38;;;;;;;;;;4980777;28;20125;-70
2023/04/12 10:56:53;;;;;;;20.45;3.42;;;;;;;;;;4979154;28;20130;-70
2023/04/12 10:59:19;;;;;;;14.90;3.28;;;12.30;99.90;;;;;;4976193;28;20050;-70
2023/04/12 11:02:04;;;;;;;14.82;3.65;;;;;;;;;;4980806;28;20536;-70
2023/04/12 11:04:30;;;;;;;10.82;2.90;;;;;;;;;;4991626;28;20038;-70
2023/04/12 11:07:00;;;;;;;14.73;3.72;;;12.50;99.90;;;;;;5002021;28;20034;-70
2023/04/12 11:09:30;;;;;;;17.23;3.83;;;12.50;99.90;;;;;;4979063;28;20124;-71
2023/04/12 11:12:04;;;;;;;19.17;6.85;;;12.40;99.90;;;;;;4976769;28;20101;-70
2023/04/12 11:14:45;;;;;;;29.00;6.03;;;12.50;99.90;;;;;;4996751;28;20115;-69
2023/04/12 11:17:17;;;;;;;18.60;3.40;;;12.70;99.90;;;;;;4980202;28;20568;-69
2023/04/12 11:19:49;;;;;;;11.88;3.00;;;;;;;;;;4952295;28;20088;-69
2023/04/12 11:22:17;;;;;;;16.65;3.00;;;12.50;99.90;;;;;;4996138;28;20046;-69
2023/04/12 11:24:45;;;;;;;19.48;4.55;;;12.40;99.90;;;;;;4969376;28;20037;-70
2023/04/12 11:27:11;;;;;;;10.77;2.78;;;;;;;;;;4989621;28;20669;-69
2023/04/12 11:29:37;;;;;;;13.68;3.70;;;;;;;;;;4979025;28;20042;-69
2023/04/12 11:32:04;;;;;;;10.13;2.47;;;;;;;;;;4996403;28;20117;-69
2023/04/12 11:34:34;;;;;;;11.13;2.55;;;;;;;;;;4976855;28;20573;-69
2023/04/12 11:37:03;;;;;;;13.82;2.58;;;12.80;99.90;;;;;;4975550;28;20405;-69
2023/04/12 11:39:28;;;;;;;17.58;3.72;;;12.80;99.90;;;;;;4975812;28;20053;-69
2023/04/12 11:41:56;;;;;;;11.50;2.60;;;;;;;;;;4993884;28;20049;-69
2023/04/12 11:44:22;;;;;;;11.55;2.83;;;12.90;99.90;;;;;;4998122;28;20050;-69
2023/04/12 11:46:48;;;;;;;19.50;3.78;;;12.80;99.90;;;;;;4994061;28;20052;-69
2023/04/12 11:49:18;;;;;;;14.43;2.85;;;12.80;99.90;;;;;;4997741;28;20046;-69
2023/04/12 11:51:44;;;;;;;11.38;2.78;;;;;;;;;;4972133;28;22861;-69
2023/04/12 11:54:11;;;;;;;10.23;2.55;;;13.10;99.90;;;;;;4975411;28;20050;-69
2023/04/12 11:56:37;;;;;;;9.35;2.30;;;13.40;99.90;;;;;;4984396;28;20049;-69
2023/04/12 11:59:03;;;;;;;11.48;2.63;;;;;;;;;;4981294;28;20054;-68
2023/04/12 12:01:30;;;;;;;18.15;3.05;;;;;;;;;;4978271;28;20073;-69
2023/04/12 12:03:56;;;;;;;14.05;2.83;;;;;;;;;;4976809;28;20085;-69
2023/04/12 12:06:23;;;;;;;9.93;2.25;;;;;;;;;;4975496;28;20046;-69
2023/04/12 12:08:52;;;;;;;6.63;1.90;;;13.60;99.90;;;;;;4977401;28;20042;-69
2023/04/12 12:11:20;;;;;;;9.57;2.63;;;13.50;99.90;;;;;;4971972;28;20417;-70
2023/04/12 12:13:47;;;;;;;7.28;1.88;;;13.60;99.90;;;;;;4974935;28;20042;-69
2023/04/12 12:16:14;;;;;;;7.43;2.00;;;13.40;99.90;;;;;;4974384;28;20057;-68
2023/04/12 12:18:43;;;;;;;6.20;1.83;;;13.30;99.90;;;;;;4996953;28;20553;-69
2023/04/12 12:21:11;;;;;;;10.85;2.40;;;13.60;99.90;;;;;;4975573;28;20466;-69
2023/04/12 12:23:37;;;;;;;7.20;1.77;;;;;;;;;;4977653;28;20128;-70
2023/04/12 12:26:05;;;;;;;10.95;2.20;;;13.80;99.90;;;;;;4975707;28;20056;-68
2023/04/12 12:28:31;;;;;;;10.23;2.30;;;;;;;;;;4978424;28;20504;-68
2023/04/12 12:30:57;;;;;;;10.23;2.45;;;;;;;;;;4996145;28;20126;-68
2023/04/12 12:33:23;;;;;;;18.77;3.22;;;14.20;99.90;;;;;;4981156;28;20053;-70
2023/04/12 12:35:56;;;;;;;14.57;3.42;;;14.10;99.90;;;;;;4991428;28;20045;-71
2023/04/12 12:38:22;;;;;;;9.65;2.17;;;13.80;99.90;;;;;;4965230;28;20038;-69
2023/04/12 12:40:48;;;;;;;8.00;2.28;;;13.90;99.90;;;;;;4969643;28;20396;-69
2023/04/12 12:43:20;;;;;;;13.77;2.47;;;13.80;99.90;;;;;;4982297;28;20052;-70
2023/04/12 12:45:46;;;;;;;11.88;2.50;;;;;;;;;;4979427;28;20732;-69
2023/04/12 12:48:12;;;;;;;10.45;2.88;;;13.80;99.90;;;;;;4994376;28;20220;-69
2023/04/12 12:50:38;;;;;;;9.68;2.03;;;13.80;99.90;;;;;;4971848;28;20073;-69
2023/04/12 12:53:05;;;;;;;9.10;2.00;;;13.80;99.90;;;;;;4978328;28;20089;-70
2023/04/12 12:55:31;;;;;;;10.63;3.05;;;;;;;;;;4997760;28;20049;-69
2023/04/12 12:57:58;;;;;;;12.05;2.40;;;13.80;99.90;;;;;;4992761;28;20042;-69
2023/04/12 13:00:26;;;;;;;7.75;1.83;;;13.90;99.90;;;;;;4996231;28;20050;-69
2023/04/12 13:02:52;;;;;;;10.95;2.72;;;;;;;;;;4973021;28;20038;-69
2023/04/12 13:05:19;;;;;;;8.30;2.25;;;13.80;99.90;;;;;;4977134;28;20109;-69
2023/04/12 13:07:46;;;;;;;11.07;2.47;;;13.80;99.90;;;;;;4973037;28;20120;-69
2023/04/12 13:10:12;;;;;;;8.82;2.92;;;;;;;;;;4989373;28;20650;-71
2023/04/12 13:12:38;;;;;;;11.07;2.30;;;;;;;;;;4994757;28;20101;-68
2023/04/12 13:15:04;;;;;;;9.55;1.92;;;;;;;;;;4995988;28;20041;-68
2023/04/12 13:17:30;;;;;;;9.35;2.00;;;;;;;;;;4979130;28;20523;-68
2023/04/12 13:19:57;;;;;;;10.25;2.47;;;;;;;;;;4977627;28;20050;-68
2023/04/12 13:22:23;;;;;;;12.38;2.47;;;13.00;99.90;;;;;;4997081;28;20100;-70
2023/04/12 13:24:49;;;;;;;8.43;1.92;;;13.00;99.90;;;;;;4974922;28;20513;-71
2023/04/12 13:27:15;;;;;;;8.75;1.52;;;13.00;99.90;;;;;;4992386;28;20171;-73
2023/04/12 13:29:41;;;;;;;10.85;2.40;;;;;;;;;;4951015;28;20279;-72
2023/04/12 13:32:08;;;;;;;12.57;2.60;;;13.10;99.90;;;;;;4977845;28;20042;-72
2023/04/12 13:34:34;;;;;;;13.10;3.25;;;;;;;;;;4977446;28;20038;-72
2023/04/12 13:37:00;;;;;;;11.10;2.85;;;;;;;;;;4973656;28;20077;-72
2023/04/12 13:39:26;;;;;;;12.15;3.13;;;;;;;;;;4977311;28;20096;-71
2023/04/12 13:41:52;;;;;;;8.15;1.75;;;;;;;;;;4998243;28;20049;-71
2023/04/12 13:44:18;;;;;;;9.00;2.10;;;;;;;;;;4979863;28;20046;-72
2023/04/12 13:46:44;;;;;;;11.88;2.20;;;;;;;;;;4969744;28;20046;-71
2023/04/12 13:49:10;;;;;;;8.15;1.98;;;;;;;;;;4974218;28;20042;-73
2023/04/12 13:51:36;;;;;;;11.80;3.03;;;;;;;;;;4975019;28;20105;-72
2023/04/12 13:54:02;;;;;;;10.15;2.55;;;;;;;;;;4977599;28;21010;-72
2023/04/12 13:56:28;;;;;;;12.65;2.35;;;;;;;;;;4979076;28;20052;-70
2023/04/12 13:58:54;;;;;;;11.05;2.17;;;;;;;;;;4976524;28;20050;-71
2023/04/12 14:01:22;;;;;;;7.25;1.70;;;12.40;99.90;;;;;;5000273;28;20046;-71
2023/04/12 14:03:48;;;;;;;11.55;2.70;;;;;;;;;;4980381;28;20052;-72
2023/04/12 14:06:14;;;;;;;13.13;2.40;;;;;;;;;;4980003;28;20420;-72
2023/04/12 14:08:40;;;;;;;8.32;2.42;;;;;;;;;;4998004;28;20046;-72